KMTW/MTW METAR and TAF weather

Enter ICAO airport designator
Station Type Date Time Source
KMTW METAR 2019/08/23 14:56 UTC NOAA

KMTW 231456Z AUTO 02007KT 10SM CLR 18/12 A3027 RMK AO2 SLP252 T01830122 53014


Station Type Date Time Source
KMTW Decoded METAR 2019/08/23 14:56 UTC NOAA

Station name not available
Aug 23, 2019 - 10:56 AM EDT / 2019.08.23 1456 UTC
Wind: from the NNE (020 degrees) at 8 MPH (7 KT):0
Visibility: 10 mile(s):0
Sky conditions: clear
Temperature: 64.9 F (18.3 C)
Dew Point: 54.0 F (12.2 C)
Relative Humidity: 67%
Pressure (altimeter): 30.27 in. Hg (1025 hPa)
Pressure tendency: 0.04 inches (1.4 hPa) higher than three hours ago
ob: KMTW 231456Z AUTO 02007KT 10SM CLR 18/12 A3027 RMK AO2 SLP252 T01830122 53014
cycle: 15

Station Type Date Time Source
KMTW TAF 2019/08/23 12:22 UTC NOAA

TAF KMTW 231120Z 2312/2412 34004KT P6SM SKC
FM231500 06007KT P6SM SCT040
FM232100 08008KT P6SM SCT050
FM240200 04003KT P6SM SKC
FM241000 07003KT P6SM SKC

Example: see airport list